Time;durP1;ratioP1;P1;durP2;ratioP2;P2;SDS_P1;SDS_P2;PMS_P1;PMS_P2;Temp;Humidity;BMP_temperature;BMP_pressure;BME280_temperature;BME280_humidity;BME280_pressure;Samples;Min_cycle;Max_cycle;Signal;HPM_P1;HPM_P2
2022/09/28 00:01:17;;;;;;;5.75;4.03;;;10.00;99.90;;;;;;5054359;28;20171;-63
2022/09/28 00:03:43;;;;;;;5.28;4.35;;;10.10;99.90;;;;;;5054363;28;20582;-63
2022/09/28 00:06:12;;;;;;;7.80;4.75;;;10.10;99.90;;;;;;5036261;28;20206;-64
2022/09/28 00:08:38;;;;;;;6.82;4.38;;;10.20;99.90;;;;;;5054264;28;20187;-63
2022/09/28 00:11:05;;;;;;;4.47;4.07;;;10.20;99.90;;;;;;5052835;28;20190;-63
2022/09/28 00:13:32;;;;;;;5.97;4.82;;;10.20;99.90;;;;;;5054029;28;20271;-64
2022/09/28 00:16:05;;;;;;;7.00;4.57;;;10.30;99.90;;;;;;5053839;28;20202;-64
2022/09/28 00:18:32;;;;;;;5.78;4.72;;;10.30;99.90;;;;;;5053842;28;20171;-64
2022/09/28 00:21:02;;;;;;;5.72;5.13;;;10.20;99.90;;;;;;5054023;28;20240;-63
2022/09/28 00:23:28;;;;;;;7.20;4.70;;;10.20;99.90;;;;;;5053983;28;20179;-64
2022/09/28 00:25:53;;;;;;;7.18;5.15;;;10.30;99.90;;;;;;5053869;28;20219;-64
2022/09/28 00:28:19;;;;;;;7.53;5.20;;;10.40;99.90;;;;;;5052660;28;20179;-64
2022/09/28 00:30:45;;;;;;;5.78;4.72;;;10.50;99.90;;;;;;5052753;28;20653;-64
2022/09/28 00:33:10;;;;;;;7.20;5.13;;;10.50;99.90;;;;;;5053614;28;20172;-64
2022/09/28 00:35:36;;;;;;;5.15;4.65;;;10.50;99.90;;;;;;5052676;28;20186;-63
2022/09/28 00:38:02;;;;;;;7.07;5.28;;;10.50;99.90;;;;;;5052446;28;20175;-64
2022/09/28 00:40:28;;;;;;;5.72;5.22;;;10.40;99.90;;;;;;5052417;28;20179;-63
2022/09/28 00:42:54;;;;;;;8.70;5.68;;;10.40;99.90;;;;;;5053660;28;20175;-63
2022/09/28 00:45:24;;;;;;;8.07;6.00;;;10.40;99.90;;;;;;5053781;28;20207;-63
2022/09/28 00:47:56;;;;;;;6.43;5.78;;;10.40;99.90;;;;;;5053366;28;20210;-63
2022/09/28 00:50:30;;;;;;;6.30;5.55;;;10.40;99.90;;;;;;5053410;28;20172;-64
2022/09/28 00:53:08;;;;;;;7.53;6.20;;;10.30;99.90;;;;;;5053571;28;20593;-63
2022/09/28 00:56:02;;;;;;;7.45;5.57;;;10.20;99.90;;;;;;5053152;28;20170;-64
2022/09/28 00:58:35;;;;;;;6.20;5.60;;;10.20;99.90;;;;;;5053468;28;20179;-63
2022/09/28 01:01:02;;;;;;;8.27;7.05;;;10.20;99.90;;;;;;5053581;28;20172;-63
2022/09/28 01:03:28;;;;;;;7.53;6.38;;;10.20;99.90;;;;;;5053258;28;20210;-63
2022/09/28 01:05:57;;;;;;;7.00;6.30;;;10.20;99.90;;;;;;5053188;28;20738;-63
2022/09/28 01:08:26;;;;;;;7.75;6.57;;;10.20;99.90;;;;;;5051872;28;20179;-63
2022/09/28 01:10:52;;;;;;;7.18;6.50;;;10.20;99.90;;;;;;5053118;28;20502;-64
2022/09/28 01:13:20;;;;;;;8.13;6.30;;;10.20;99.90;;;;;;5052181;28;20228;-64
2022/09/28 01:16:14;;;;;;;8.25;6.70;;;10.20;99.90;;;;;;5053087;28;20203;-63
2022/09/28 01:19:15;;;;;;;8.07;6.28;;;10.20;99.90;;;;;;5053102;28;20195;-64
2022/09/28 01:21:52;;;;;;;6.60;5.82;;;10.10;99.90;;;;;;5053060;28;20175;-64
2022/09/28 01:24:39;;;;;;;7.53;6.75;;;10.20;99.90;;;;;;5051880;28;20269;-64
2022/09/28 01:27:29;;;;;;;7.00;6.30;;;10.20;99.90;;;;;;5052939;28;20194;-64
2022/09/28 01:30:09;;;;;;;8.93;6.82;;;10.20;99.90;;;;;;5052901;28;20248;-63
2022/09/28 01:32:40;;;;;;;10.60;7.18;;;10.20;99.90;;;;;;5053319;28;20182;-62
2022/09/28 01:35:32;;;;;;;7.68;6.90;;;10.20;99.90;;;;;;5053011;28;20663;-64
2022/09/28 01:38:22;;;;;;;8.30;7.50;;;10.30;99.90;;;;;;5048762;28;20266;-63
2022/09/28 01:40:49;;;;;;;9.68;7.18;;;10.30;99.90;;;;;;5053081;28;20172;-63
2022/09/28 01:43:20;;;;;;;7.57;6.88;;;10.30;99.90;;;;;;5051816;28;20236;-63
2022/09/28 01:46:06;;;;;;;7.80;7.00;;;10.20;99.90;;;;;;5052876;28;20244;-64
2022/09/28 01:48:43;;;;;;;9.23;7.18;;;10.10;99.90;;;;;;5052939;28;20245;-63
2022/09/28 01:51:20;;;;;;;7.85;7.05;;;10.00;99.90;;;;;;5052839;28;20648;-64
2022/09/28 01:53:51;;;;;;;8.63;7.55;;;10.10;99.90;;;;;;5052810;28;20182;-64
2022/09/28 01:56:24;;;;;;;8.55;7.20;;;10.00;99.90;;;;;;5052843;28;20663;-63
2022/09/28 01:59:26;;;;;;;7.00;6.40;;;9.90;99.90;;;;;;5052653;28;20267;-63
2022/09/28 02:01:57;;;;;;;7.82;7.07;;;10.00;99.90;;;;;;5051714;28;20540;-64
2022/09/28 02:04:27;;;;;;;8.50;7.40;;;9.90;99.90;;;;;;5052704;28;20178;-62
2022/09/28 02:07:00;;;;;;;7.40;6.60;;;9.90;99.90;;;;;;5053179;28;20277;-63
2022/09/28 02:09:36;;;;;;;8.73;7.07;;;9.90;99.90;;;;;;5056639;28;20186;-63
2022/09/28 02:12:25;;;;;;;8.40;7.40;;;9.90;99.90;;;;;;5056533;28;20636;-63
2022/09/28 02:14:58;;;;;;;7.95;7.20;;;9.90;99.90;;;;;;5056369;28;20253;-64
2022/09/28 02:17:24;;;;;;;8.05;7.32;;;9.80;99.90;;;;;;5056302;28;20182;-63
2022/09/28 02:19:50;;;;;;;8.02;7.22;;;9.70;99.90;;;;;;5055275;28;20187;-63
2022/09/28 02:22:28;;;;;;;8.45;7.55;;;9.70;99.90;;;;;;5056344;28;20613;-63
2022/09/28 02:25:02;;;;;;;8.75;7.95;;;9.70;99.90;;;;;;5054988;28;20172;-64
2022/09/28 02:27:37;;;;;;;10.30;7.85;;;9.80;99.90;;;;;;5056412;28;20570;-64
2022/09/28 02:30:04;;;;;;;10.05;7.72;;;9.80;99.90;;;;;;5054694;28;20182;-63
2022/09/28 02:32:32;;;;;;;11.10;8.60;;;9.70;99.90;;;;;;5056354;28;20206;-64
2022/09/28 02:34:58;;;;;;;9.25;7.47;;;9.70;99.90;;;;;;5056293;28;20588;-64
2022/09/28 02:37:26;;;;;;;10.00;7.85;;;9.70;99.90;;;;;;5055948;28;20206;-63
2022/09/28 02:39:52;;;;;;;10.30;8.30;;;9.70;99.90;;;;;;5055855;28;20199;-64
2022/09/28 02:42:33;;;;;;;11.32;9.07;;;9.70;99.90;;;;;;5055697;28;20651;-64
2022/09/28 02:45:08;;;;;;;10.32;7.93;;;9.70;99.90;;;;;;5055814;28;20702;-63
2022/09/28 02:48:14;;;;;;;10.65;8.30;;;9.70;99.90;;;;;;5055971;28;20179;-64
2022/09/28 02:51:05;;;;;;;10.35;8.90;;;9.80;99.90;;;;;;5053584;28;20198;-63
2022/09/28 02:54:14;;;;;;;10.68;8.25;;;9.80;99.90;;;;;;5054496;28;20167;-64
2022/09/28 02:56:58;;;;;;;10.02;8.77;;;9.80;99.90;;;;;;5045119;28;20195;-64
2022/09/28 02:59:41;;;;;;;9.57;8.32;;;9.90;99.90;;;;;;5055727;28;20221;-63
2022/09/28 03:02:44;;;;;;;10.75;8.00;;;9.90;99.90;;;;;;5055587;28;20236;-64
2022/09/28 03:05:40;;;;;;;9.02;8.10;;;9.90;99.90;;;;;;5055324;28;20244;-63
2022/09/28 03:08:22;;;;;;;12.15;8.15;;;9.70;99.90;;;;;;5055829;28;20632;-64
2022/09/28 03:10:57;;;;;;;9.65;7.60;;;9.70;99.90;;;;;;5055428;28;20175;-64
2022/09/28 03:13:24;;;;;;;10.82;8.75;;;9.70;99.90;;;;;;5055165;28;20213;-63
2022/09/28 03:15:50;;;;;;;11.13;8.38;;;9.80;99.90;;;;;;5054957;28;20656;-63
2022/09/28 03:18:16;;;;;;;9.48;7.95;;;9.80;99.90;;;;;;5055136;28;20229;-64
2022/09/28 03:20:42;;;;;;;11.00;8.43;;;9.70;99.90;;;;;;5055028;28;20186;-63
2022/09/28 03:23:07;;;;;;;8.82;7.68;;;9.80;99.90;;;;;;5055170;28;20179;-64
2022/09/28 03:25:33;;;;;;;10.45;8.30;;;9.70;99.90;;;;;;5055108;28;20289;-64
2022/09/28 03:27:59;;;;;;;9.63;8.30;;;9.70;99.90;;;;;;5053700;28;20176;-63
2022/09/28 03:30:25;;;;;;;7.72;6.93;;;9.70;99.90;;;;;;5055270;28;20203;-64
2022/09/28 03:33:01;;;;;;;9.60;7.13;;;9.70;99.90;;;;;;5053922;28;20170;-64
2022/09/28 03:35:30;;;;;;;8.95;7.93;;;9.60;99.90;;;;;;5054857;28;20179;-63
2022/09/28 03:37:56;;;;;;;11.35;7.85;;;9.60;99.90;;;;;;5054817;28;20525;-64
2022/09/28 03:40:22;;;;;;;11.38;7.30;;;9.60;99.90;;;;;;5053853;28;20207;-63
2022/09/28 03:42:47;;;;;;;9.23;7.45;;;9.70;99.90;;;;;;5053380;28;20648;-63
2022/09/28 03:45:13;;;;;;;13.13;8.23;;;9.60;99.90;;;;;;5053274;28;20224;-63
2022/09/28 03:47:43;;;;;;;8.73;6.63;;;9.60;99.90;;;;;;5054786;28;20257;-63
2022/09/28 03:50:09;;;;;;;11.90;7.25;;;9.60;99.90;;;;;;5054640;28;20187;-64
2022/09/28 03:52:34;;;;;;;8.48;7.05;;;9.50;99.90;;;;;;5054458;28;20176;-62
2022/09/28 03:55:00;;;;;;;7.55;6.75;;;9.40;99.90;;;;;;5054523;28;20583;-63
2022/09/28 03:57:26;;;;;;;8.50;6.90;;;9.30;99.90;;;;;;5054278;28;20202;-63
2022/09/28 03:59:51;;;;;;;7.25;6.55;;;9.30;99.90;;;;;;5054568;28;20188;-63
2022/09/28 04:02:17;;;;;;;8.52;6.32;;;9.20;99.90;;;;;;5053309;28;20233;-63
2022/09/28 04:04:42;;;;;;;9.70;7.15;;;9.20;99.90;;;;;;5053079;28;20183;-63
2022/09/28 04:07:08;;;;;;;11.45;6.32;;;9.10;99.90;;;;;;5054255;28;20167;-63
2022/09/28 04:09:34;;;;;;;6.80;5.97;;;9.00;99.90;;;;;;5053048;28;20636;-63
2022/09/28 04:11:59;;;;;;;8.85;6.57;;;9.10;99.90;;;;;;5054235;28;20207;-63
2022/09/28 04:14:25;;;;;;;9.55;6.38;;;9.10;99.90;;;;;;5052906;28;20273;-63
2022/09/28 04:16:53;;;;;;;7.53;5.95;;;9.10;99.90;;;;;;5053040;28;20229;-65
2022/09/28 04:19:20;;;;;;;7.75;6.07;;;9.00;99.90;;;;;;5052893;28;20241;-63
2022/09/28 04:21:47;;;;;;;5.80;5.25;;;8.90;99.90;;;;;;5052739;28;20207;-64
2022/09/28 04:24:13;;;;;;;8.18;6.15;;;8.90;99.90;;;;;;5052666;28;20572;-63
2022/09/28 04:26:39;;;;;;;7.53;5.93;;;8.90;99.90;;;;;;5053954;28;20218;-64
2022/09/28 04:29:17;;;;;;;6.22;5.55;;;8.90;99.90;;;;;;5053658;28;20301;-63
2022/09/28 04:31:51;;;;;;;6.50;5.30;;;8.90;99.90;;;;;;5053617;28;20650;-64
2022/09/28 04:34:19;;;;;;;7.65;5.30;;;9.00;99.90;;;;;;5053653;28;20221;-63
2022/09/28 04:36:46;;;;;;;6.63;5.53;;;8.90;99.90;;;;;;5053612;28;20270;-63
2022/09/28 04:39:16;;;;;;;6.32;5.43;;;8.80;99.90;;;;;;5053615;28;20171;-63
2022/09/28 04:41:42;;;;;;;5.45;4.95;;;8.80;99.90;;;;;;5053601;28;20167;-64
2022/09/28 04:44:08;;;;;;;5.82;4.97;;;8.80;99.90;;;;;;5053705;28;20186;-63
2022/09/28 04:46:34;;;;;;;5.75;5.13;;;8.80;99.90;;;;;;5053344;28;20241;-64
2022/09/28 04:49:00;;;;;;;5.70;5.03;;;8.60;99.90;;;;;;5053458;28;20183;-63
2022/09/28 04:51:26;;;;;;;6.43;4.63;;;8.50;99.90;;;;;;5053319;28;20190;-63
2022/09/28 04:53:52;;;;;;;9.45;5.57;;;8.50;99.90;;;;;;5053295;28;20217;-63
2022/09/28 04:56:18;;;;;;;7.35;4.97;;;8.50;99.90;;;;;;5053415;28;20186;-64
2022/09/28 04:58:44;;;;;;;6.35;5.30;;;8.50;99.90;;;;;;5053397;28;20172;-62
2022/09/28 05:01:13;;;;;;;8.15;5.47;;;8.30;99.90;;;;;;5052140;28;20250;-62
2022/09/28 05:03:43;;;;;;;8.65;5.63;;;8.40;99.90;;;;;;5050658;28;20217;-61
2022/09/28 05:06:12;;;;;;;8.88;5.25;;;8.40;99.90;;;;;;5052658;28;20203;-62
2022/09/28 05:08:38;;;;;;;7.10;5.70;;;8.30;99.90;;;;;;5052217;28;20183;-62
2022/09/28 05:11:07;;;;;;;7.80;5.35;;;8.20;99.90;;;;;;5053361;28;20624;-62
2022/09/28 05:13:40;;;;;;;6.45;5.30;;;8.10;99.90;;;;;;5053168;28;20253;-62
2022/09/28 05:16:14;;;;;;;7.65;5.25;;;8.00;99.90;;;;;;5053091;28;20193;-62
2022/09/28 05:18:40;;;;;;;6.35;5.35;;;8.10;99.90;;;;;;5053132;28;20174;-62
2022/09/28 05:21:13;;;;;;;5.72;5.22;;;8.00;99.90;;;;;;5053133;28;20179;-62
2022/09/28 05:23:40;;;;;;;7.72;5.25;;;8.10;99.90;;;;;;5052101;28;20171;-62
2022/09/28 05:26:07;;;;;;;9.05;5.43;;;8.10;99.90;;;;;;5051939;28;20236;-62
2022/09/28 05:28:32;;;;;;;7.78;5.00;;;8.10;99.90;;;;;;5052951;28;20180;-62
2022/09/28 05:30:59;;;;;;;7.32;5.65;;;8.10;99.90;;;;;;5051772;28;20190;-62
2022/09/28 05:33:26;;;;;;;7.50;4.75;;;8.30;99.90;;;;;;5035443;28;20197;-61
2022/09/28 05:35:51;;;;;;;7.63;5.35;;;8.20;99.90;;;;;;5051874;28;20179;-62
2022/09/28 05:38:17;;;;;;;7.10;5.40;;;8.20;99.90;;;;;;5052972;28;20526;-62
2022/09/28 05:40:42;;;;;;;6.43;5.07;;;8.20;99.90;;;;;;5053304;28;20171;-62
2022/09/28 05:43:08;;;;;;;4.97;4.57;;;8.10;99.90;;;;;;5055793;28;20184;-62
2022/09/28 05:45:34;;;;;;;7.47;4.97;;;8.10;99.90;;;;;;5055457;28;20198;-62
2022/09/28 05:47:59;;;;;;;5.35;4.78;;;8.10;99.90;;;;;;5056004;28;20179;-61
2022/09/28 05:50:25;;;;;;;5.53;5.03;;;8.10;99.90;;;;;;5056911;28;20262;-62
2022/09/28 05:53:17;;;;;;;6.70;6.00;;;8.20;99.90;;;;;;5056750;28;20171;-62
2022/09/28 05:55:42;;;;;;;6.22;5.13;;;8.20;99.90;;;;;;5053514;28;20219;-62
2022/09/28 05:58:09;;;;;;;8.23;5.50;;;8.20;99.90;;;;;;5056634;28;20601;-62
2022/09/28 06:00:35;;;;;;;6.32;5.40;;;8.30;99.90;;;;;;5056809;28;20517;-61
2022/09/28 06:03:05;;;;;;;7.57;6.22;;;8.20;99.90;;;;;;5056749;28;20202;-62
2022/09/28 06:05:34;;;;;;;9.25;6.00;;;8.30;99.90;;;;;;5056569;28;20244;-62
2022/09/28 06:08:03;;;;;;;7.78;5.65;;;8.40;99.90;;;;;;5056444;28;20180;-61
2022/09/28 06:10:28;;;;;;;6.43;5.82;;;8.30;99.90;;;;;;5056362;28;20633;-62
2022/09/28 06:12:55;;;;;;;7.32;6.50;;;8.40;99.90;;;;;;5038880;28;20197;-62
2022/09/28 06:15:23;;;;;;;8.50;6.18;;;8.50;99.90;;;;;;5055007;28;20544;-62
2022/09/28 06:17:58;;;;;;;9.80;6.95;;;8.50;99.90;;;;;;5056680;28;20179;-62
2022/09/28 06:20:26;;;;;;;10.18;6.97;;;8.60;99.90;;;;;;5056456;28;20636;-62
2022/09/28 06:22:52;;;;;;;8.27;7.05;;;8.60;99.90;;;;;;5054890;28;20206;-62
2022/09/28 06:25:18;;;;;;;7.40;6.65;;;8.70;99.90;;;;;;5054846;28;20203;-62
2022/09/28 06:28:03;;;;;;;7.15;6.32;;;8.70;99.90;;;;;;5056279;28;20264;-62
2022/09/28 06:30:31;;;;;;;7.47;6.63;;;8.70;99.90;;;;;;5056336;28;20301;-62
2022/09/28 06:32:59;;;;;;;9.68;6.88;;;8.80;99.90;;;;;;5056181;28;20233;-62
2022/09/28 06:35:27;;;;;;;8.30;6.90;;;8.90;99.90;;;;;;5055950;28;20186;-62
2022/09/28 06:37:53;;;;;;;8.23;6.82;;;8.90;99.90;;;;;;5056515;28;20251;-62
2022/09/28 06:40:20;;;;;;;7.57;6.80;;;9.00;99.90;;;;;;5056062;28;20179;-62
2022/09/28 06:43:02;;;;;;;7.97;6.63;;;9.00;99.90;;;;;;5055966;28;20199;-62
2022/09/28 06:45:29;;;;;;;10.60;6.97;;;9.10;99.90;;;;;;5055773;28;20210;-62
2022/09/28 06:47:57;;;;;;;10.02;7.38;;;9.20;99.90;;;;;;5055811;28;20183;-62
2022/09/28 06:50:33;;;;;;;10.88;6.90;;;9.20;99.90;;;;;;5055633;28;20708;-61
2022/09/28 06:53:00;;;;;;;10.65;7.57;;;9.30;99.90;;;;;;5055254;28;20163;-61
2022/09/28 06:55:26;;;;;;;9.52;7.28;;;9.30;99.90;;;;;;5055701;28;20175;-62
2022/09/28 06:58:03;;;;;;;9.73;7.72;;;9.30;99.90;;;;;;5055894;28;20179;-62
2022/09/28 07:00:32;;;;;;;9.52;7.70;;;9.40;99.90;;;;;;5055485;28;20517;-62
2022/09/28 07:03:00;;;;;;;10.20;8.10;;;9.50;99.90;;;;;;5055544;28;20190;-62
2022/09/28 07:05:27;;;;;;;10.00;8.05;;;9.60;99.90;;;;;;5055417;28;20210;-62
2022/09/28 07:07:54;;;;;;;9.82;8.27;;;9.60;99.90;;;;;;5055532;28;20184;-62
2022/09/28 07:10:26;;;;;;;11.68;8.80;;;9.70;99.90;;;;;;5055390;28;20172;-62
2022/09/28 07:12:53;;;;;;;10.88;9.10;;;9.70;99.90;;;;;;5055308;28;20179;-62
2022/09/28 07:15:20;;;;;;;9.15;8.25;;;9.80;99.90;;;;;;5055306;28;20270;-62
2022/09/28 07:17:46;;;;;;;12.07;9.02;;;9.80;99.90;;;;;;5055307;28;20633;-63
2022/09/28 07:20:12;;;;;;;10.38;8.73;;;9.90;99.90;;;;;;5055064;28;20739;-61
2022/09/28 07:22:38;;;;;;;12.07;8.93;;;9.90;99.90;;;;;;5053955;28;20254;-62
2022/09/28 07:25:05;;;;;;;11.63;8.73;;;10.00;99.90;;;;;;5055207;28;20309;-62
2022/09/28 07:27:31;;;;;;;12.60;9.32;;;10.20;99.90;;;;;;5055023;28;20180;-62
2022/09/28 07:29:57;;;;;;;10.00;8.50;;;10.20;99.90;;;;;;5037289;28;20182;-62
2022/09/28 07:32:24;;;;;;;11.93;9.00;;;10.10;99.90;;;;;;5055062;28;20249;-62
2022/09/28 07:34:49;;;;;;;11.80;9.13;;;10.20;99.90;;;;;;5054132;28;20180;-62
2022/09/28 07:37:17;;;;;;;10.00;8.70;;;10.30;99.90;;;;;;5054963;28;20182;-62
2022/09/28 07:42:29;;;;;;;10.57;8.88;;;10.50;99.90;;;;;;5055357;28;20194;-62
2022/09/28 07:44:58;;;;;;;11.57;9.48;;;10.60;99.90;;;;;;5053613;28;20175;-62
2022/09/28 07:47:27;;;;;;;11.95;9.85;;;10.80;99.90;;;;;;5054804;28;20172;-62
2022/09/28 07:49:56;;;;;;;12.10;10.00;;;10.90;99.90;;;;;;5054714;28;20646;-62
2022/09/28 07:52:24;;;;;;;12.48;9.10;;;11.00;99.90;;;;;;5054666;28;20179;-62
2022/09/28 07:54:54;;;;;;;11.35;9.07;;;10.90;99.90;;;;;;5054322;28;20221;-62
2022/09/28 07:57:23;;;;;;;13.52;8.85;;;11.00;99.90;;;;;;5053108;28;20207;-62
2022/09/28 07:59:52;;;;;;;11.52;8.15;;;11.20;99.90;;;;;;5053490;28;20247;-61
2022/09/28 08:02:21;;;;;;;10.00;8.55;;;11.20;99.90;;;;;;5054380;28;20183;-62
2022/09/28 08:04:48;;;;;;;9.95;8.02;;;11.10;99.90;;;;;;5035883;28;20743;-61
2022/09/28 08:07:15;;;;;;;8.98;7.63;;;11.20;99.90;;;;;;5054177;28;20262;-62
2022/09/28 08:09:45;;;;;;;8.43;7.40;;;11.30;99.90;;;;;;5054405;28;20202;-62
2022/09/28 08:12:12;;;;;;;9.35;8.45;;;11.30;99.90;;;;;;5054313;28;20250;-61
2022/09/28 08:14:38;;;;;;;10.52;8.00;;;11.40;99.90;;;;;;5054616;28;20205;-61
2022/09/28 08:17:06;;;;;;;9.45;7.28;;;11.60;99.90;;;;;;5054192;28;20186;-62
2022/09/28 08:22:18;;;;;;;10.75;7.32;;;11.70;99.90;;;;;;5054388;28;20233;-62
2022/09/28 08:24:45;;;;;;;9.07;7.00;;;11.80;99.90;;;;;;5053830;28;20183;-62
2022/09/28 08:27:11;;;;;;;9.02;7.25;;;11.80;99.90;;;;;;5053910;28;20218;-61
2022/09/28 08:29:37;;;;;;;10.73;7.18;;;11.90;99.90;;;;;;5052912;28;20258;-62
2022/09/28 08:32:06;;;;;;;8.15;6.43;;;12.00;99.90;;;;;;5053710;28;20270;-62
2022/09/28 08:34:36;;;;;;;8.82;6.80;;;12.20;99.90;;;;;;5053707;28;20225;-62
2022/09/28 08:37:02;;;;;;;7.50;6.80;;;12.40;99.90;;;;;;5053618;28;20191;-61
2022/09/28 08:39:28;;;;;;;9.95;6.80;;;12.40;99.90;;;;;;5053723;28;20210;-62
2022/09/28 08:41:59;;;;;;;8.63;6.50;;;12.50;99.90;;;;;;5052443;28;20391;-62
2022/09/28 08:44:31;;;;;;;9.35;6.65;;;12.60;99.90;;;;;;5053408;28;20183;-61
2022/09/28 08:47:04;;;;;;;8.68;6.57;;;12.60;99.90;;;;;;5053463;28;20198;-62
2022/09/28 08:49:40;;;;;;;6.45;5.60;;;12.60;99.90;;;;;;5053637;28;20167;-62
2022/09/28 08:52:22;;;;;;;7.90;5.60;;;12.50;99.90;;;;;;5053876;28;20624;-62
2022/09/28 08:55:08;;;;;;;7.85;5.68;;;12.50;99.90;;;;;;5053369;28;20719;-62
2022/09/28 08:57:44;;;;;;;7.53;5.63;;;12.40;99.90;;;;;;5052368;28;20175;-61
2022/09/28 09:00:20;;;;;;;8.25;5.20;;;12.40;99.90;;;;;;5052410;28;20177;-62
2022/09/28 09:02:47;;;;;;;7.07;5.97;;;12.50;99.90;;;;;;5053552;28;20167;-62
2022/09/28 09:05:17;;;;;;;7.97;6.20;;;12.60;99.90;;;;;;5053178;28;20206;-62
2022/09/28 09:08:29;;;;;;;7.75;6.13;;;12.90;99.90;;;;;;5053196;28;20268;-62
2022/09/28 09:11:33;;;;;;;8.00;4.90;;;13.20;99.90;;;;;;5046285;28;20358;-62
2022/09/28 09:14:21;;;;;;;6.32;4.78;;;13.50;99.90;;;;;;5052876;28;20175;-62
2022/09/28 09:17:17;;;;;;;6.85;4.05;;;13.30;99.90;;;;;;5053064;28;20207;-61
2022/09/28 09:19:51;;;;;;;5.05;3.90;;;13.20;99.90;;;;;;5048355;28;20522;-62
2022/09/28 09:22:39;;;;;;;6.70;3.80;;;13.00;99.90;;;;;;5053054;28;20174;-62
2022/09/28 09:25:24;;;;;;;6.35;4.35;;;13.20;99.90;;;;;;5051880;28;20172;-62
2022/09/28 09:28:12;;;;;;;5.65;4.22;;;13.30;99.90;;;;;;5053033;28;20167;-61
2022/09/28 09:30:50;;;;;;;5.47;4.32;;;13.60;99.90;;;;;;5052972;28;20244;-62
2022/09/28 09:33:48;;;;;;;6.88;4.40;;;13.80;99.90;;;;;;5053230;28;20175;-62
2022/09/28 09:36:46;;;;;;;4.50;4.00;;;14.00;99.90;;;;;;5053073;28;20171;-62
2022/09/28 09:39:17;;;;;;;7.28;4.30;;;14.00;99.90;;;;;;5052949;28;20168;-61
2022/09/28 09:42:20;;;;;;;4.90;4.32;;;14.20;99.90;;;;;;5053134;28;20177;-62
2022/09/28 09:44:48;;;;;;;5.72;4.45;;;14.40;99.90;;;;;;5053280;28;20175;-62
2022/09/28 09:47:29;;;;;;;6.25;5.05;;;14.50;99.90;;;;;;5052706;28;20249;-62
2022/09/28 09:50:11;;;;;;;5.35;4.43;;;14.70;99.90;;;;;;5051802;28;20175;-62
2022/09/28 09:52:54;;;;;;;5.07;3.67;;;14.90;99.90;;;;;;5052870;28;20168;-62
2022/09/28 09:55:24;;;;;;;5.18;2.90;;;14.80;99.90;;;;;;5052866;28;20175;-62
2022/09/28 09:58:01;;;;;;;3.95;2.67;;;14.60;99.90;;;;;;5052701;28;20183;-62
2022/09/28 10:00:27;;;;;;;3.63;2.50;;;14.30;99.90;;;;;;5052994;28;20175;-62
2022/09/28 10:02:56;;;;;;;6.03;2.47;;;14.30;99.90;;;;;;5051672;28;20175;-62
2022/09/28 10:05:26;;;;;;;4.05;2.17;;;14.50;99.90;;;;;;5052782;28;20199;-62
2022/09/28 10:08:01;;;;;;;4.45;1.90;;;14.60;99.90;;;;;;5052724;28;20246;-62
2022/09/28 10:10:33;;;;;;;4.35;1.98;;;14.70;99.90;;;;;;5052644;28;20278;-62
2022/09/28 10:12:59;;;;;;;3.05;1.95;;;14.80;99.90;;;;;;5052702;28;20180;-62
2022/09/28 10:15:30;;;;;;;4.10;2.67;;;14.60;99.90;;;;;;5052604;28;20555;-62
2022/09/28 10:18:09;;;;;;;4.78;2.33;;;14.50;99.90;;;;;;5051379;28;20527;-63
2022/09/28 10:20:38;;;;;;;5.05;2.55;;;14.50;99.90;;;;;;5052602;28;20690;-62
2022/09/28 10:23:06;;;;;;;5.38;2.80;;;14.50;99.90;;;;;;5052747;28;20251;-62
2022/09/28 10:25:36;;;;;;;3.95;2.60;;;14.30;99.90;;;;;;5052563;28;20199;-63
2022/09/28 10:28:06;;;;;;;5.57;3.15;;;14.30;99.90;;;;;;5053446;28;20522;-62
2022/09/28 10:30:40;;;;;;;3.75;2.70;;;14.30;99.90;;;;;;5056124;28;20174;-62
2022/09/28 10:33:32;;;;;;;4.53;2.95;;;14.30;99.90;;;;;;5056336;28;20253;-62
2022/09/28 10:36:00;;;;;;;3.78;3.03;;;14.40;99.90;;;;;;5056137;28;20233;-62
2022/09/28 10:38:28;;;;;;;6.50;3.10;;;14.40;99.90;;;;;;5055979;28;20182;-62
2022/09/28 10:40:58;;;;;;;6.85;3.00;;;14.40;99.90;;;;;;5055946;28;20629;-62
2022/09/28 10:43:25;;;;;;;6.05;3.22;;;14.40;99.90;;;;;;5055844;28;20167;-62
2022/09/28 10:46:13;;;;;;;4.47;3.13;;;14.40;99.90;;;;;;5055571;28;20253;-62
2022/09/28 10:48:47;;;;;;;5.13;3.05;;;14.50;99.90;;;;;;5054679;28;20179;-62
2022/09/28 10:51:13;;;;;;;6.03;2.92;;;14.50;99.90;;;;;;5055772;28;20220;-62
2022/09/28 10:53:39;;;;;;;4.63;3.40;;;14.60;99.90;;;;;;5055625;28;20253;-62
2022/09/28 10:56:17;;;;;;;3.60;3.30;;;14.70;99.90;;;;;;5055460;28;20175;-62
2022/09/28 10:58:43;;;;;;;5.28;2.90;;;14.80;99.90;;;;;;5055752;28;20233;-63
2022/09/28 11:01:22;;;;;;;7.13;3.53;;;14.80;99.90;;;;;;5055520;28;20180;-62
2022/09/28 11:03:49;;;;;;;5.70;3.25;;;14.90;99.90;;;;;;5055578;28;20367;-62
2022/09/28 11:06:23;;;;;;;5.68;3.20;;;14.90;99.90;;;;;;5055342;28;20549;-62
2022/09/28 11:08:50;;;;;;;5.43;3.03;;;15.00;99.90;;;;;;5054378;28;20561;-62
2022/09/28 11:11:20;;;;;;;3.78;3.05;;;15.20;99.90;;;;;;5054276;28;20176;-62
2022/09/28 11:14:02;;;;;;;6.78;3.30;;;15.50;99.90;;;;;;5055384;28;20179;-62
2022/09/28 11:16:31;;;;;;;6.85;3.05;;;15.70;99.90;;;;;;5055204;28;20187;-62
2022/09/28 11:19:02;;;;;;;3.90;2.75;;;15.50;99.90;;;;;;5054109;28;20185;-62
2022/09/28 11:21:33;;;;;;;5.30;2.90;;;14.90;99.90;;;;;;5055301;28;20704;-62
2022/09/28 11:24:05;;;;;;;5.43;3.00;;;15.00;99.90;;;;;;5055023;28;20525;-62
2022/09/28 11:26:45;;;;;;;11.05;6.35;;;14.40;99.90;;;;;;5055000;28;20198;-62
2022/09/28 11:29:30;;;;;;;10.20;5.38;;;13.50;99.90;;;;;;5055068;28;20214;-62
2022/09/28 11:32:02;;;;;;;7.22;5.20;;;12.50;99.90;;;;;;5055185;28;20168;-63
2022/09/28 11:34:37;;;;;;;7.85;5.18;;;12.40;99.90;;;;;;5055004;28;20266;-62
2022/09/28 11:37:24;;;;;;;6.90;4.50;;;12.30;99.90;;;;;;5054914;28;20171;-62
2022/09/28 11:40:21;;;;;;;7.75;5.13;;;12.30;99.90;;;;;;5054631;28;20183;-62
2022/09/28 11:42:50;;;;;;;6.03;5.43;;;12.20;99.90;;;;;;5055214;28;20625;-61
2022/09/28 11:45:36;;;;;;;7.32;5.60;;;12.20;99.90;;;;;;5054690;28;20258;-62
2022/09/28 11:48:07;;;;;;;6.10;5.60;;;12.30;99.90;;;;;;5054569;28;20191;-62
2022/09/28 11:51:04;;;;;;;6.57;5.75;;;12.30;99.90;;;;;;5054837;28;20621;-62
2022/09/28 11:53:44;;;;;;;5.75;5.22;;;12.30;99.90;;;;;;5054610;28;20170;-62
2022/09/28 11:56:09;;;;;;;5.93;5.22;;;12.30;99.90;;;;;;5054479;28;20298;-62
2022/09/28 11:59:34;;;;;;;6.30;5.68;;;12.20;99.90;;;;;;5054277;28;20598;-62
2022/09/28 12:02:11;;;;;;;7.88;7.05;;;12.10;99.90;;;;;;5032149;28;20176;-62
2022/09/28 12:04:43;;;;;;;8.68;7.82;;;12.30;99.90;;;;;;5015740;28;20637;-62
2022/09/28 12:07:22;;;;;;;8.93;8.10;;;12.30;99.90;;;;;;5045017;28;20226;-62
2022/09/28 12:09:59;;;;;;;8.05;7.25;;;12.50;99.90;;;;;;5054387;28;20174;-62
2022/09/28 12:13:00;;;;;;;8.25;7.53;;;12.60;99.90;;;;;;5054291;28;20179;-62
2022/09/28 12:16:03;;;;;;;8.13;7.35;;;12.70;99.90;;;;;;5053870;28;20233;-62
2022/09/28 12:18:43;;;;;;;9.90;5.95;;;12.70;99.90;;;;;;5043664;28;20278;-62
2022/09/28 12:21:24;;;;;;;8.52;7.65;;;12.70;99.90;;;;;;5054040;28;20166;-62
2022/09/28 12:23:54;;;;;;;7.00;5.80;;;12.70;99.90;;;;;;5053829;28;20237;-61
2022/09/28 12:26:54;;;;;;;7.80;7.00;;;12.60;99.90;;;;;;5052902;28;20206;-62
2022/09/28 12:29:32;;;;;;;9.00;8.05;;;12.60;99.90;;;;;;5053880;28;20191;-62
2022/09/28 12:32:10;;;;;;;6.63;6.13;;;12.60;99.90;;;;;;5053694;28;20636;-62
2022/09/28 12:34:36;;;;;;;6.93;6.22;;;12.60;99.90;;;;;;5054061;28;20178;-61
2022/09/28 12:37:39;;;;;;;6.22;5.38;;;12.50;99.90;;;;;;5052498;28;20178;-62
2022/09/28 12:40:18;;;;;;;3.88;3.45;;;12.40;99.90;;;;;;5053662;28;20178;-61
2022/09/28 12:43:02;;;;;;;3.22;1.95;;;12.10;99.90;;;;;;5053726;28;20266;-62
2022/09/28 12:45:42;;;;;;;2.50;1.70;;;11.70;99.90;;;;;;5053598;28;20264;-61
2022/09/28 12:48:35;;;;;;;2.40;1.40;;;11.50;99.90;;;;;;5053539;28;20182;-62
2022/09/28 12:51:06;;;;;;;3.22;1.35;;;11.50;99.90;;;;;;5053198;28;20175;-62
2022/09/28 12:53:50;;;;;;;2.50;1.20;;;11.60;99.90;;;;;;5053279;28;20175;-62
2022/09/28 12:56:37;;;;;;;1.88;1.20;;;12.00;99.90;;;;;;5053447;28;20636;-62
2022/09/28 12:59:24;;;;;;;4.70;2.60;;;12.40;99.90;;;;;;5053402;28;20175;-62
2022/09/28 13:02:09;;;;;;;6.65;2.53;;;12.90;99.90;;;;;;5053556;28;20216;-61
2022/09/28 13:05:17;;;;;;;2.05;1.38;;;13.00;99.90;;;;;;5053429;28;20656;-61
2022/09/28 13:08:07;;;;;;;4.07;1.10;;;13.20;99.90;;;;;;5053467;28;20236;-61
2022/09/28 13:10:59;;;;;;;1.67;1.13;;;13.10;99.90;;;;;;5036586;28;20279;-62
2022/09/28 13:13:25;;;;;;;3.58;1.08;;;13.10;99.90;;;;;;5052820;28;20260;-61
2022/09/28 13:16:16;;;;;;;2.35;1.23;;;12.80;99.90;;;;;;5053335;28;20223;-62
2022/09/28 13:19:05;;;;;;;1.95;1.08;;;12.60;99.90;;;;;;5042722;28;20191;-61
2022/09/28 13:21:57;;;;;;;3.15;1.90;;;12.70;99.90;;;;;;5053088;28;20175;-62
2022/09/28 13:24:27;;;;;;;3.22;1.63;;;12.60;99.90;;;;;;5053307;28;20174;-61
2022/09/28 13:26:58;;;;;;;1.65;1.38;;;12.80;99.90;;;;;;5053064;28;20210;-62